Time;durP1;ratioP1;P1;durP2;ratioP2;P2;SDS_P1;SDS_P2;PMS_P1;PMS_P2;Temp;Humidity;BMP_temperature;BMP_pressure;BME280_temperature;BME280_humidity;BME280_pressure;Samples;Min_cycle;Max_cycle;Signal;HPM_P1;HPM_P2
2021/06/17 00:00:15;;;;;;;6.03;3.70;;;;;;;28.95;44.98;100146.53;4856970;29;20062;-66
2021/06/17 00:02:44;;;;;;;6.63;4.10;;;;;;;29.04;44.89;100147.47;4858222;29;20429;-66
2021/06/17 00:05:13;;;;;;;7.40;3.80;;;;;;;29.02;45.15;100154.81;4856394;29;20058;-76
2021/06/17 00:07:42;;;;;;;;;;;;;;;28.60;45.72;100149.19;4857333;29;20472;-66
2021/06/17 00:10:21;;;;;;;11.77;4.05;;;;;;;28.37;46.57;100152.25;4856688;29;19924;-69
2021/06/17 00:12:49;;;;;;;6.65;3.50;;;;;;;28.37;46.92;100151.47;4840208;29;20057;-68
2021/06/17 00:15:18;;;;;;;9.63;3.90;;;;;;;28.67;45.86;100153.84;4856437;29;20053;-74
2021/06/17 00:17:45;;;;;;;6.13;3.80;;;;;;;28.74;45.91;100156.47;4856506;29;20382;-72
2021/06/17 00:20:14;;;;;;;8.90;3.70;;;;;;;28.53;46.46;100160.75;4840477;29;20430;-74
2021/06/17 00:22:42;;;;;;;7.07;3.92;;;;;;;28.72;45.98;100159.78;4856682;29;20410;-77
2021/06/17 00:25:10;;;;;;;6.43;3.53;;;;;;;28.79;46.13;100147.41;4856609;29;20054;-74
2021/06/17 00:27:38;;;;;;;9.57;3.97;;;;;;;28.98;45.70;100154.16;4840721;29;20057;-75
2021/06/17 00:30:07;;;;;;;9.35;3.85;;;;;;;28.76;45.84;100139.81;4857000;29;20061;-72
2021/06/17 00:32:35;;;;;;;5.97;3.60;;;;;;;28.62;46.11;100140.25;4843888;29;20061;-76
2021/06/17 00:35:03;;;;;;;8.40;3.95;;;;;;;28.69;46.21;100134.38;4859353;29;20058;-73
2021/06/17 00:37:32;;;;;;;7.93;4.03;;;;;;;28.64;46.42;100130.06;4842768;29;20045;-67
2021/06/17 00:39:59;;;;;;;9.88;4.13;;;;;;;28.44;46.93;100120.09;4859566;29;20049;-73
2021/06/17 00:42:27;;;;;;;7.43;3.80;;;;;;;28.35;47.60;100122.81;4859558;29;20061;-69
2021/06/17 00:44:54;;;;;;;11.52;4.07;;;;;;;28.55;46.63;100110.09;4860984;29;20053;-73
2021/06/17 00:47:22;;;;;;;7.28;4.50;;;;;;;28.43;47.12;100107.19;4843970;29;20065;-72
2021/06/17 00:49:49;;;;;;;8.40;4.80;;;;;;;28.51;46.78;100095.22;4842883;29;20058;-75
2021/06/17 00:52:17;;;;;;;6.47;4.10;;;;;;;28.60;47.02;100084.00;4858948;29;20068;-76
2021/06/17 00:54:45;;;;;;;8.10;4.25;;;;;;;28.49;46.94;100085.53;4842659;29;20064;-71
2021/06/17 01:01:50;;;;;;;9.15;4.30;;;;;;;28.27;47.44;100081.75;4859383;29;20041;-69
2021/06/17 01:04:17;;;;;;;11.85;4.70;;;;;;;28.24;47.97;100083.44;4859430;29;20417;-72
2021/06/17 01:06:46;;;;;;;11.57;4.22;;;;;;;28.39;47.78;100070.44;4843057;29;20126;-74
2021/06/17 01:09:40;;;;;;;7.70;4.40;;;;;;;28.58;47.07;100065.84;4859258;29;20050;-71
2021/06/17 01:12:26;;;;;;;7.95;4.18;;;;;;;28.51;47.34;100078.22;4843629;29;20054;-71
2021/06/17 01:15:05;;;;;;;9.70;4.10;;;;;;;28.51;46.92;100078.22;4843690;29;20429;-69
2021/06/17 01:17:34;;;;;;;;;;;;;;;28.37;47.40;100072.94;4859852;29;20409;-78
2021/06/17 01:20:36;;;;;;;12.80;4.53;;;;;;;28.40;47.76;100060.69;4858822;29;20066;-81
2021/06/17 01:23:33;;;;;;;10.35;4.05;;;;;;;28.33;47.47;100065.78;4820305;29;20078;-76
2021/06/17 01:30:10;;;;;;;8.40;4.03;;;;;;;28.27;48.35;100078.91;4819783;29;20561;-73
2021/06/17 01:32:39;;;;;;;11.70;4.25;;;;;;;28.22;48.44;100083.09;4820049;29;20050;-75
2021/06/17 01:35:08;;;;;;;6.80;4.40;;;;;;;28.01;48.64;100077.22;4820418;29;20059;-76
2021/06/17 01:37:38;;;;;;;12.00;4.45;;;;;;;27.86;49.19;100093.78;4820666;29;20090;-74
2021/06/17 01:40:06;;;;;;;9.10;4.07;;;;;;;27.79;49.32;100102.47;4822397;29;20065;-70
2021/06/17 01:42:36;;;;;;;9.30;4.05;;;;;;;28.06;48.64;100153.94;4820567;29;20054;-76
2021/06/17 01:45:05;;;;;;;7.68;4.20;;;;;;;28.22;48.40;100275.72;4805157;29;20054;-77
2021/06/17 01:47:35;;;;;;;17.02;5.05;;;;;;;27.68;51.10;100297.25;4819310;29;20057;-70
2021/06/17 01:50:04;;;;;;;38.85;5.10;;;;;;;27.19;52.92;100335.88;4805452;29;20055;-70
2021/06/17 01:52:33;;;;;;;25.67;5.37;;;;;;;26.24;59.20;100382.78;4819750;29;20065;-67
2021/06/17 01:55:01;;;;;;;17.40;4.95;;;;;;;25.58;62.39;100404.28;4819915;29;20306;-73
2021/06/17 01:57:29;;;;;;;16.02;5.15;;;;;;;25.00;65.65;100379.94;4822171;29;20074;-76
2021/06/17 01:59:57;;;;;;;18.45;4.75;;;;;;;23.97;69.68;100434.66;4808964;29;20058;-72
2021/06/17 02:02:25;;;;;;;20.52;5.70;;;;;;;23.73;71.37;100390.59;4843023;29;20053;-82
2021/06/17 02:04:53;;;;;;;21.95;4.90;;;;;;;23.48;72.00;100328.88;4860406;29;20053;-79
2021/06/17 02:07:24;;;;;;;15.73;5.55;;;;;;;22.76;74.93;100320.28;4858830;29;20049;-74
2021/06/17 02:09:52;;;;;;;17.08;5.13;;;;;;;22.55;76.19;100312.72;4857566;29;20049;-75
2021/06/17 02:12:21;;;;;;;15.93;5.03;;;;;;;22.35;75.64;100284.22;4859671;29;20057;-78
2021/06/17 02:14:50;;;;;;;15.98;4.85;;;;;;;22.33;75.19;100283.81;4858256;29;20512;-75
2021/06/17 02:17:19;;;;;;;11.30;4.50;;;;;;;22.03;75.73;100286.28;4842659;29;20060;-70
2021/06/17 02:19:48;;;;;;;14.35;4.55;;;;;;;22.21;74.99;100300.28;4842653;29;20064;-71
2021/06/17 02:22:17;;;;;;;17.90;5.95;;;;;;;22.39;75.28;100317.13;4842186;29;20414;-76
2021/06/17 02:24:48;;;;;;;16.38;4.43;;;;;;;22.62;75.51;100348.38;4858368;29;20049;-79
2021/06/17 02:27:18;;;;;;;15.20;4.55;;;;;;;22.67;75.64;100443.44;4857735;29;20403;-76
2021/06/17 02:29:48;;;;;;;13.80;4.95;;;;;;;22.97;75.09;100517.69;4842161;29;20053;-79
2021/06/17 02:32:23;;;;;;;17.77;5.63;;;;;;;23.17;74.46;100552.56;4858661;29;20122;-81
2021/06/17 02:34:51;;;;;;;21.60;5.90;;;;;;;23.22;75.13;100557.00;4811861;29;20413;-81
2021/06/17 02:37:19;;;;;;;17.90;6.10;;;;;;;22.94;77.19;100557.81;4841920;29;20053;-71
2021/06/17 02:39:49;;;;;;;17.77;5.50;;;;;;;22.91;76.61;100561.41;4842880;29;20057;-68
2021/06/17 02:42:19;;;;;;;17.20;6.07;;;;;;;22.76;77.38;100542.94;4857439;29;20068;-70
2021/06/17 02:44:49;;;;;;;20.33;6.55;;;;;;;22.67;78.00;100508.03;4827278;29;20080;-70
2021/06/17 02:47:17;;;;;;;20.13;5.93;;;;;;;22.54;78.05;100510.44;4841352;29;20057;-67
2021/06/17 02:49:45;;;;;;;17.30;6.25;;;;;;;22.61;78.51;100509.63;4858109;29;20481;-68
2021/06/17 02:52:12;;;;;;;16.40;5.43;;;;;;;22.70;77.94;100485.56;4856891;29;20397;-67
2021/06/17 02:54:40;;;;;;;18.02;5.97;;;;;;;22.89;76.77;100475.94;4856694;29;20413;-67
2021/06/17 02:57:25;;;;;;;20.00;5.70;;;;;;;22.94;76.94;100481.16;4840414;29;20057;-68
2021/06/17 03:00:08;;;;;;;16.63;5.60;;;;;;;22.74;77.57;100466.72;4841354;29;20057;-66
2021/06/17 03:02:55;;;;;;;16.70;6.07;;;;;;;22.59;77.71;100445.47;4858121;29;20065;-66
2021/06/17 03:05:25;;;;;;;13.85;6.25;;;;;;;22.41;79.08;100430.56;4857897;29;20046;-69
2021/06/17 03:08:19;;;;;;;17.17;5.68;;;;;;;22.62;77.82;100419.38;4858479;29;20473;-72
2021/06/17 03:10:48;;;;;;;20.10;6.00;;;;;;;22.83;76.67;100368.00;4839023;29;20095;-73
2021/06/17 03:13:18;;;;;;;17.95;5.85;;;;;;;22.66;76.69;100360.41;4857077;29;20072;-78
2021/06/17 03:15:46;;;;;;;18.25;5.45;;;;;;;22.35;77.79;100339.56;4857887;29;20540;-80
2021/06/17 03:18:15;;;;;;;15.98;5.85;;;;;;;22.00;79.65;100345.94;4826590;29;20482;-78
2021/06/17 03:20:44;;;;;;;18.15;6.15;;;;;;;21.91;79.66;100342.75;4841046;29;20056;-80
2021/06/17 03:23:15;;;;;;;15.38;5.43;;;;;;;21.85;81.10;100346.34;4857237;29;20062;-75
2021/06/17 03:25:45;;;;;;;18.55;5.53;;;;;;;22.05;80.70;100359.59;4842275;29;20498;-76
2021/06/17 03:28:14;;;;;;;12.43;5.10;;;;;;;22.22;79.71;100358.81;4840966;29;20050;-80
2021/06/17 03:30:45;;;;;;;20.20;5.07;;;;;;;22.19;78.70;100348.38;4858514;29;20057;-81
2021/06/17 03:33:17;;;;;;;17.55;5.53;;;;;;;22.45;77.99;100335.94;4840906;29;20053;-78
2021/06/17 03:35:46;;;;;;;14.25;5.25;;;;;;;22.33;77.28;100297.84;4841002;29;20061;-80
2021/06/17 03:38:15;;;;;;;15.98;5.90;;;;;;;22.24;78.12;100275.03;4841231;29;20516;-83
2021/06/17 03:40:44;;;;;;;13.63;5.32;;;;;;;22.18;77.73;100257.00;4843375;29;20060;-81
2021/06/17 03:43:13;;;;;;;15.20;5.20;;;;;;;21.94;79.29;100249.41;4858996;29;20062;-82
2021/06/17 03:45:42;;;;;;;13.95;4.85;;;;;;;22.20;78.05;100256.59;4857436;29;20310;-80
2021/06/17 03:48:13;;;;;;;14.18;5.20;;;;;;;22.40;77.04;100262.59;4822753;29;20054;-77
2021/06/17 03:50:43;;;;;;;13.27;5.30;;;;;;;22.59;77.08;100284.63;4839190;29;20057;-73
2021/06/17 03:53:13;;;;;;;12.57;4.65;;;;;;;22.64;75.52;100295.44;4839753;29;20073;-75
2021/06/17 03:55:43;;;;;;;13.48;4.88;;;;;;;22.54;76.51;100316.72;4902687;29;20375;-82
2021/06/17 03:58:11;;;;;;;13.65;5.07;;;;;;;22.53;76.73;100323.50;4840951;29;20061;-81
2021/06/17 04:00:39;;;;;;;11.70;4.38;;;;;;;22.58;77.26;100330.75;4838549;29;20065;-82
2021/06/17 04:03:09;;;;;;;13.43;5.18;;;;;;;22.65;76.92;100339.94;4902761;29;20054;-80
2021/06/17 04:05:37;;;;;;;18.25;5.13;;;;;;;22.76;76.53;100340.75;4839673;29;20049;-81
2021/06/17 04:08:10;;;;;;;12.32;4.78;;;;;;;22.63;77.46;100350.78;4826093;29;20054;-82
2021/06/17 04:10:39;;;;;;;14.32;5.13;;;;;;;22.53;77.98;100340.34;4841441;29;20054;-76
2021/06/17 04:13:08;;;;;;;14.52;5.07;;;;;;;22.60;77.76;100331.94;4840586;29;20058;-78
2021/06/17 04:15:36;;;;;;;18.27;5.15;;;;;;;22.61;77.22;100324.31;4825453;29;20046;-73
2021/06/17 04:18:04;;;;;;;13.65;5.38;;;;;;;22.14;79.74;100323.53;4840445;29;20054;-80
2021/06/17 04:20:34;;;;;;;11.40;4.78;;;;;;;22.29;79.90;100313.09;4840966;29;20527;-81
2021/06/17 04:23:04;;;;;;;11.35;4.32;;;;;;;22.06;79.87;100315.50;4840285;29;20053;-79
2021/06/17 04:25:32;;;;;;;10.65;4.95;;;;;;;22.31;79.25;100303.09;4842067;29;20065;-82
2021/06/17 04:28:02;;;;;;;13.05;4.65;;;;;;;22.13;79.26;100326.72;4842821;29;20109;-83
2021/06/17 04:30:30;;;;;;;11.90;5.35;;;;;;;22.26;79.38;100325.91;4842313;29;20050;-84
2021/06/17 04:33:04;;;;;;;15.18;5.20;;;;;;;22.51;78.54;100328.72;4840886;29;20049;-82
2021/06/17 04:35:32;;;;;;;10.18;4.30;;;;;;;22.52;78.35;100326.72;4842711;29;20057;-78
2021/06/17 04:38:00;;;;;;;14.20;5.38;;;;;;;22.56;77.82;100324.75;4839796;29;20406;-78
2021/06/17 04:40:29;;;;;;;12.43;4.72;;;;;;;22.71;77.68;100329.13;4904436;29;20060;-80
2021/06/17 04:42:59;;;;;;;16.00;5.50;;;;;;;22.66;77.17;100327.53;4841312;29;20046;-83
2021/06/17 04:45:28;;;;;;;13.98;4.65;;;;;;;22.60;77.48;100317.09;4849376;29;20056;-79
2021/06/17 04:47:56;;;;;;;11.68;5.10;;;;;;;22.72;78.20;100333.50;4848755;29;20072;-71
2021/06/17 04:50:24;;;;;;;11.68;4.90;;;;;;;22.52;79.02;100327.53;4850815;29;20054;-77
2021/06/17 04:53:08;;;;;;;16.10;5.45;;;;;;;22.68;78.70;100321.50;4849741;29;20061;-71
2021/06/17 04:55:41;;;;;;;12.68;5.25;;;;;;;22.75;78.40;100318.69;4847771;29;20074;-74
2021/06/17 04:58:09;;;;;;;13.73;5.13;;;;;;;22.82;77.90;100322.25;4848681;29;20050;-72
2021/06/17 05:00:36;;;;;;;17.30;5.68;;;;;;;22.85;77.93;100323.47;4848717;29;20079;-77
2021/06/17 05:03:04;;;;;;;16.20;5.65;;;;;;;22.83;78.48;100326.69;4847236;29;20069;-71
2021/06/17 05:05:33;;;;;;;11.23;5.35;;;;;;;22.75;78.80;100335.53;4841067;29;20238;-74
2021/06/17 05:10:54;;;;;;;12.63;5.00;;;;;;;22.94;77.44;100321.84;4841511;29;20061;-80
2021/06/17 05:13:24;;;;;;;15.18;5.43;;;;;;;23.11;76.98;100318.16;4840564;29;20068;-67
2021/06/17 05:15:52;;;;;;;14.52;5.30;;;;;;;23.14;76.86;100319.34;4840715;29;20490;-74
2021/06/17 05:18:22;;;;;;;11.27;5.20;;;;;;;23.05;76.48;100330.22;4839865;29;20139;-69
2021/06/17 05:20:50;;;;;;;14.20;5.47;;;;;;;23.08;76.67;100335.03;4841164;29;20081;-74
2021/06/17 05:23:21;;;;;;;13.43;5.50;;;;;;;23.03;77.43;100343.88;4840828;29;20062;-70
2021/06/17 05:25:51;;;;;;;11.70;4.93;;;;;;;23.42;75.48;100347.38;4840443;29;20061;-72
2021/06/17 05:28:22;;;;;;;10.55;5.18;;;;;;;23.54;75.28;100335.66;4840538;29;20065;-69
2021/06/17 05:30:50;;;;;;;13.50;5.32;;;;;;;23.63;74.55;100338.00;4840883;29;20042;-77
2021/06/17 05:33:18;;;;;;;15.45;5.13;;;;;;;23.53;74.39;100338.88;4839851;29;20054;-75
2021/06/17 05:35:46;;;;;;;12.80;4.43;;;;;;;23.65;74.07;100350.47;4839652;29;20046;-78
2021/06/17 05:38:21;;;;;;;16.30;4.70;;;;;;;23.94;73.04;100351.88;4887473;29;20122;-71
2021/06/17 05:40:52;;;;;;;14.85;5.13;;;;;;;23.92;72.77;100357.09;4839387;29;20168;-68
2021/06/17 05:43:21;;;;;;;11.43;4.47;;;;;;;24.04;72.87;100356.66;4840436;29;20171;-73
2021/06/17 05:50:26;;;;;;;15.10;5.03;;;;;;;23.95;72.99;100366.75;4825108;29;20051;-74
2021/06/17 05:52:53;;;;;;;11.60;4.65;;;;;;;24.34;71.63;100372.91;4823373;29;20510;-76
2021/06/17 05:55:21;;;;;;;14.90;5.20;;;;;;;24.53;71.02;100372.34;4823482;29;20051;-72
2021/06/17 05:57:48;;;;;;;14.13;4.60;;;;;;;24.57;70.95;100373.13;4822087;29;20065;-68
2021/06/17 06:05:02;;;;;;;11.07;5.25;;;;;;;24.88;69.69;100380.47;4821265;29;20054;-69
2021/06/17 06:07:29;;;;;;;13.38;4.60;;;;;;;24.97;68.18;100380.81;4822173;29;20054;-64
2021/06/17 06:09:57;;;;;;;13.98;4.65;;;;;;;24.87;69.31;100392.19;4821880;29;20499;-67
2021/06/17 06:12:25;;;;;;;12.95;6.35;;;;;;;24.96;69.46;100398.13;4805200;29;20077;-64
2021/06/17 06:14:52;;;;;;;12.20;7.03;;;;;;;25.01;68.34;100401.31;4804866;29;20058;-65
2021/06/17 06:17:23;;;;;;;12.48;5.00;;;;;;;24.88;68.82;100416.34;4805492;29;20406;-68
2021/06/17 06:19:51;;;;;;;11.50;5.00;;;;;;;24.69;68.51;100417.69;4820212;29;20062;-73
2021/06/17 06:22:18;;;;;;;12.63;4.45;;;;;;;24.73;68.57;100414.84;4820591;29;20055;-67
2021/06/17 06:24:49;;;;;;;14.55;4.53;;;;;;;25.02;67.86;100427.47;4820249;29;20134;-75
2021/06/17 06:27:17;;;;;;;10.77;4.35;;;;;;;25.23;66.93;100441.31;4821418;29;20243;-66
2021/06/17 06:29:45;;;;;;;11.75;4.50;;;;;;;25.11;66.44;100453.94;4820772;29;20057;-65
2021/06/17 06:32:13;;;;;;;18.85;4.53;;;;;;;25.23;66.31;100455.41;4883707;29;20061;-63
2021/06/17 06:34:40;;;;;;;14.18;4.50;;;;;;;25.22;66.47;100453.81;4822155;29;20066;-68
2021/06/17 06:37:08;;;;;;;14.80;4.47;;;;;;;25.27;66.36;100454.19;4806004;29;20514;-67
2021/06/17 06:39:35;;;;;;;10.35;4.43;;;;;;;25.35;66.16;100454.91;4821420;29;20058;-74
2021/06/17 06:42:03;;;;;;;12.00;4.57;;;;;;;25.21;66.05;100464.28;4820254;29;20399;-68
2021/06/17 06:44:30;;;;;;;11.98;4.43;;;;;;;25.20;66.19;100457.06;4883133;29;20054;-65
2021/06/17 06:46:59;;;;;;;15.93;4.65;;;;;;;25.10;66.50;100471.28;4820698;29;20054;-67
2021/06/17 06:49:26;;;;;;;13.55;4.28;;;;;;;25.31;65.57;100468.25;4832355;29;20054;-73
2021/06/17 06:51:54;;;;;;;12.07;4.65;;;;;;;25.46;65.60;100467.69;4838897;29;20481;-68
2021/06/17 06:54:22;;;;;;;18.98;4.38;;;;;;;25.17;65.60;100485.28;4840296;29;20501;-66
2021/06/17 06:56:50;;;;;;;14.43;4.88;;;;;;;25.21;65.81;100489.66;4839076;29;20054;-66
2021/06/17 06:59:17;;;;;;;13.93;4.57;;;;;;;25.19;65.46;100483.66;4840360;29;20054;-66
2021/06/17 07:06:13;;;;;;;10.90;3.65;;;;;;;25.37;64.78;100484.31;4838710;29;20450;-67
2021/06/17 07:08:41;;;;;;;11.15;3.75;;;;;;;25.35;63.74;100495.16;4840503;29;20434;-70
2021/06/17 07:11:09;;;;;;;19.48;7.10;;;;;;;25.53;63.38;100504.28;4838401;29;20046;-65
2021/06/17 07:13:36;;;;;;;10.48;3.80;;;;;;;25.37;64.27;100504.03;4838520;29;20057;-63
2021/06/17 07:20:32;;;;;;;22.85;4.57;;;;;;;25.67;63.51;100494.03;4838783;29;20045;-68
2021/06/17 07:23:01;;;;;;;11.90;3.88;;;;;;;25.67;63.49;100499.69;4838446;29;20058;-64
2021/06/17 07:25:28;;;;;;;14.65;4.07;;;;;;;25.44;64.26;100503.97;4838684;29;20517;-67
2021/06/17 07:27:56;;;;;;;16.42;4.97;;;;;;;25.58;63.59;100508.66;4822364;29;20058;-65
2021/06/17 07:34:51;;;;;;;12.27;4.05;;;;;;;25.89;62.27;100520.81;4839183;29;20258;-64
2021/06/17 07:37:20;;;;;;;11.30;4.75;;;;;;;25.84;62.11;100516.41;4837336;29;20077;-64
2021/06/17 07:39:47;;;;;;;10.90;3.90;;;;;;;25.49;62.91;100503.50;4837038;29;20050;-63
2021/06/17 07:42:16;;;;;;;13.57;4.03;;;;;;;25.62;63.25;100511.44;4837654;29;20050;-70
2021/06/17 07:44:43;;;;;;;11.98;3.60;;;;;;;25.54;63.15;100508.69;4836208;29;20054;-67
2021/06/17 07:51:48;;;;;;;17.38;3.47;;;;;;;25.70;62.43;100530.69;4914449;29;20469;-68
2021/06/17 07:54:18;;;;;;;19.00;4.95;;;;;;;25.81;61.54;100534.19;4898439;29;20147;-72
2021/06/17 07:56:50;;;;;;;10.48;3.72;;;;;;;26.00;61.17;100527.91;4912998;29;20063;-66
2021/06/17 07:59:22;;;;;;;11.80;4.00;;;;;;;26.28;60.05;100521.13;4913504;29;20048;-71
2021/06/17 08:06:17;;;;;;;9.07;3.33;;;;;;;27.00;58.14;100522.47;4913453;29;20120;-70
2021/06/17 08:08:45;;;;;;;12.48;3.10;;;;;;;26.87;58.18;100516.59;4896139;29;20075;-76
2021/06/17 08:11:14;;;;;;;10.13;3.13;;;;;;;26.95;58.04;100525.78;4912554;29;20048;-71
2021/06/17 08:13:58;;;;;;;10.48;3.10;;;;;;;26.80;57.81;100519.53;4896558;29;20052;-68
2021/06/17 08:16:26;;;;;;;8.57;2.95;;;;;;;26.61;58.47;100535.16;4912892;29;20060;-75
2021/06/17 08:18:56;;;;;;;11.38;2.72;;;;;;;26.60;58.49;100532.75;4911622;29;20063;-72
2021/06/17 08:21:24;;;;;;;9.52;2.83;;;;;;;26.89;57.39;100527.47;4912772;29;20536;-72
2021/06/17 08:23:54;;;;;;;8.30;2.78;;;;;;;27.13;55.96;100517.81;4896839;29;20504;-72
2021/06/17 08:26:22;;;;;;;9.23;2.80;;;;;;;27.02;56.10;100539.81;4913117;29;20400;-77
2021/06/17 08:28:50;;;;;;;7.78;2.35;;;;;;;27.07;55.02;100539.31;4913879;29;20051;-72
2021/06/17 08:31:17;;;;;;;6.22;2.10;;;;;;;26.84;54.77;100540.09;4897012;29;20052;-74
2021/06/17 08:33:45;;;;;;;7.53;2.53;;;;;;;26.84;54.69;100542.91;4913463;29;20052;-72
2021/06/17 08:36:12;;;;;;;6.25;2.30;;;;;;;26.91;55.25;100542.00;4912081;29;20063;-80
2021/06/17 08:38:42;;;;;;;9.70;3.00;;;;;;;26.76;55.39;100544.25;4910810;29;20067;-69
2021/06/17 08:41:09;;;;;;;10.30;3.03;;;;;;;26.73;55.13;100541.50;4912325;29;20072;-68
2021/06/17 08:43:50;;;;;;;9.90;2.45;;;;;;;26.71;55.58;100546.75;4912389;29;20057;-64
2021/06/17 08:46:18;;;;;;;9.00;2.87;;;;;;;26.98;54.50;100547.53;4910979;29;20516;-67
2021/06/17 08:48:49;;;;;;;7.70;2.70;;;;;;;27.04;54.41;100543.78;4912770;29;20495;-64
2021/06/17 08:51:17;;;;;;;9.07;3.22;;;;;;;27.12;54.26;100541.66;4845217;29;20050;-64
2021/06/17 08:53:48;;;;;;;11.73;5.13;;;;;;;27.14;54.31;100539.19;4837272;29;20530;-69
2021/06/17 08:56:15;;;;;;;8.32;3.38;;;;;;;27.29;53.76;100535.72;4901350;29;20139;-72
2021/06/17 08:58:45;;;;;;;14.90;2.95;;;;;;;27.39;53.53;100542.41;4838210;29;20058;-65
2021/06/17 09:01:14;;;;;;;7.28;2.67;;;;;;;27.13;53.77;100535.56;4838076;29;20513;-66
2021/06/17 09:03:44;;;;;;;10.13;2.90;;;;;;;27.12;53.97;100536.00;4838171;29;20050;-65
2021/06/17 09:06:12;;;;;;;6.68;2.30;;;;;;;27.27;53.71;100537.31;4838070;29;20382;-67
2021/06/17 09:08:40;;;;;;;6.72;2.42;;;;;;;27.28;53.51;100539.75;4839081;29;20069;-65
2021/06/17 09:11:19;;;;;;;8.70;2.20;;;;;;;27.26;53.82;100547.06;4840859;29;20061;-64
2021/06/17 09:13:46;;;;;;;6.55;2.40;;;;;;;27.11;54.13;100549.31;4841324;29;20054;-64
2021/06/17 09:20:48;;;;;;;9.32;2.67;;;;;;;26.92;55.25;100549.25;4841147;29;20053;-62
2021/06/17 09:23:43;;;;;;;10.07;2.50;;;;;;;27.01;54.45;100550.31;4839390;29;20054;-68
2021/06/17 09:26:19;;;;;;;14.15;3.58;;;;;;;27.24;53.60;100541.84;4903138;29;20054;-68
2021/06/17 09:29:01;;;;;;;10.48;3.33;;;;;;;27.42;53.39;100550.03;4840772;29;20061;-66
2021/06/17 09:31:30;;;;;;;7.60;2.40;;;;;;;27.72;52.35;100550.66;4839583;29;20070;-64
2021/06/17 09:38:43;;;;;;;10.13;2.20;;;;;;;27.50;52.13;100543.81;4841409;29;20414;-68
2021/06/17 09:41:10;;;;;;;12.23;2.47;;;;;;;27.57;51.90;100543.69;4839707;29;20050;-66
2021/06/17 09:43:42;;;;;;;10.93;2.30;;;;;;;27.81;50.94;100547.25;4839786;29;20075;-64
2021/06/17 09:46:11;;;;;;;9.30;4.88;;;;;;;27.94;50.63;100550.28;4839991;29;20395;-66
2021/06/17 09:53:24;;;;;;;9.13;2.97;;;;;;;27.65;50.78;100555.69;4821314;29;20483;-68
2021/06/17 09:55:53;;;;;;;12.02;3.13;;;;;;;27.99;49.61;100561.09;4821421;29;20050;-66
2021/06/17 09:58:37;;;;;;;16.38;3.30;;;;;;;28.12;49.42;100560.03;4821301;29;20432;-65
2021/06/17 10:01:35;;;;;;;7.78;2.50;;;;;;;28.16;49.85;100557.91;4821442;29;20074;-65
2021/06/17 10:08:20;;;;;;;9.15;2.78;;;;;;;28.27;49.27;100555.66;4821057;29;20058;-63
2021/06/17 10:10:47;;;;;;;6.68;2.13;;;;;;;28.39;47.79;100551.31;4790203;29;20406;-64
2021/06/17 10:13:16;;;;;;;8.18;2.35;;;;;;;28.35;48.51;100550.63;4804651;29;20057;-67
2021/06/17 10:15:44;;;;;;;10.50;2.33;;;;;;;28.34;48.70;100540.50;4805236;29;20077;-64
2021/06/17 10:22:52;;;;;;;9.30;2.30;;;;;;;27.82;50.45;100551.69;4821331;29;20498;-69
2021/06/17 10:25:25;;;;;;;7.03;2.88;;;;;;;28.03;49.54;100551.31;4807466;29;20054;-75
2021/06/17 10:28:01;;;;;;;5.35;2.28;;;;;;;27.70;50.37;100538.19;4804061;29;20050;-67
2021/06/17 10:30:46;;;;;;;8.45;2.40;;;;;;;27.81;49.99;100533.09;4820850;29;20057;-72
2021/06/17 10:33:45;;;;;;;6.47;2.25;;;;;;;27.87;49.69;100539.06;4820746;29;20059;-67
2021/06/17 10:36:37;;;;;;;7.68;2.33;;;;;;;27.81;49.44;100537.97;4799927;29;20074;-71
2021/06/17 10:39:04;;;;;;;4.97;2.38;;;;;;;27.55;50.25;100542.50;4785228;29;20520;-69
2021/06/17 10:41:47;;;;;;;5.15;2.05;;;;;;;27.94;49.46;100536.13;4801244;29;20530;-68
2021/06/17 10:44:36;;;;;;;7.03;2.33;;;;;;;27.69;50.42;100545.88;4799161;29;20051;-71
2021/06/17 10:47:04;;;;;;;7.60;2.97;;;;;;;27.81;49.47;100543.66;4784650;29;20149;-71
2021/06/17 10:49:50;;;;;;;9.00;3.00;;;;;;;27.92;48.56;100539.38;4798945;29;20086;-72
2021/06/17 10:52:24;;;;;;;7.18;2.88;;;;;;;27.83;49.13;100541.19;4796258;29;20491;-70
2021/06/17 10:55:09;;;;;;;7.28;2.70;;;;;;;28.01;48.85;100533.13;4820336;29;20054;-71
2021/06/17 10:57:47;;;;;;;7.25;2.22;;;;;;;28.38;47.49;100533.56;4788503;29;20459;-79
2021/06/17 11:00:25;;;;;;;8.93;2.53;;;;;;;28.40;47.52;100531.06;4820435;29;20051;-74
2021/06/17 11:07:02;;;;;;;4.60;2.33;;;;;;;28.46;46.95;100523.63;4825761;29;20175;-72
2021/06/17 11:09:42;;;;;;;7.03;3.45;;;;;;;28.45;47.52;100524.09;4770948;30;20051;-80
2021/06/17 11:12:12;;;;;;;;;;;;;;;28.77;47.88;100524.16;4783574;30;20055;-75
2021/06/17 11:14:41;;;;;;;;;;;;;;;28.78;46.77;100523.69;4784208;29;20121;-68
2021/06/17 11:17:33;;;;;;;8.70;4.55;;;;;;;29.08;46.64;100524.63;4780914;30;20469;-73
2021/06/17 11:24:22;;;;;;;5.68;2.17;;;;;;;28.63;46.43;100522.47;4856628;29;20065;-65
2021/06/17 11:26:51;;;;;;;8.13;2.50;;;;;;;28.70;46.53;100515.81;4765717;29;20056;-63
2021/06/17 11:29:29;;;;;;;7.25;2.05;;;;;;;28.76;46.73;100526.19;4782128;29;20271;-66
2021/06/17 11:31:57;;;;;;;4.65;2.28;;;;;;;28.66;47.42;100521.56;4768102;29;20058;-65
2021/06/17 11:39:05;;;;;;;18.77;3.72;;;;;;;28.56;46.11;100519.78;4857180;29;20057;-64
2021/06/17 11:41:53;;;;;;;9.75;3.13;;;;;;;28.96;45.13;100511.16;4785653;29;20059;-66
2021/06/17 11:44:24;;;;;;;8.10;2.00;;;;;;;29.01;44.76;100516.28;4839664;29;20045;-70
2021/06/17 11:47:08;;;;;;;10.13;2.63;;;;;;;28.44;46.45;100514.78;4843114;29;20058;-71
2021/06/17 11:49:44;;;;;;;10.27;2.42;;;;;;;28.26;47.02;100510.75;4847088;29;20054;-70
2021/06/17 11:52:16;;;;;;;9.18;2.50;;;;;;;28.86;46.43;100512.19;4841216;29;20058;-69
2021/06/17 11:54:46;;;;;;;9.70;2.55;;;;;;;29.00;45.93;100506.16;4822639;29;20061;-73
2021/06/17 11:57:15;;;;;;;9.15;2.80;;;;;;;29.07;45.62;100508.81;4838226;29;20061;-66
2021/06/17 11:59:50;;;;;;;9.93;2.75;;;;;;;29.36;44.89;100512.56;4836023;29;20065;-66
2021/06/17 12:02:24;;;;;;;10.57;2.33;;;;;;;29.21;45.17;100514.97;4838020;29;20050;-68
2021/06/17 12:05:01;;;;;;;6.80;2.42;;;;;;;29.37;45.16;100505.63;4836414;29;20058;-63
2021/06/17 12:07:33;;;;;;;5.82;2.28;;;;;;;29.31;44.85;100498.91;4834810;29;20082;-63
2021/06/17 12:10:08;;;;;;;7.75;3.60;;;;;;;29.50;44.94;100503.66;4838251;29;20061;-64
2021/06/17 12:12:38;;;;;;;12.45;2.80;;;;;;;29.45;44.41;100498.50;4820429;29;20046;-67
2021/06/17 12:15:08;;;;;;;5.40;1.88;;;;;;;29.70;43.22;100495.81;4838669;29;20054;-65
2021/06/17 12:17:44;;;;;;;8.63;2.40;;;;;;;29.56;43.36;100488.47;4837932;29;20061;-71
2021/06/17 12:20:15;;;;;;;9.65;2.35;;;;;;;29.45;43.61;100495.66;4837237;29;20069;-73
2021/06/17 12:22:48;;;;;;;5.00;2.10;;;;;;;29.63;43.14;100498.81;4835094;29;20050;-65
2021/06/17 12:25:19;;;;;;;5.93;2.13;;;;;;;30.04;42.79;100498.06;4837694;29;20042;-67
2021/06/17 12:27:47;;;;;;;5.65;2.08;;;;;;;29.92;42.39;100505.31;4902756;29;20062;-67
2021/06/17 12:30:48;;;;;;;9.00;2.38;;;;;;;29.69;42.81;100503.53;4824195;29;20058;-66
2021/06/17 12:33:25;;;;;;;23.27;3.72;;;;;;;29.57;43.40;100506.31;4896721;29;20101;-68
2021/06/17 12:35:56;;;;;;;28.38;3.97;;;;;;;29.31;44.28;100507.44;4897047;29;20049;-69
2021/06/17 12:38:31;;;;;;;12.77;2.35;;;;;;;29.51;43.15;100497.53;4897582;29;20057;-66
2021/06/17 12:41:17;;;;;;;8.25;2.38;;;;;;;29.42;43.36;100505.88;4897001;29;20057;-70
2021/06/17 12:43:47;;;;;;;5.82;2.28;;;;;;;29.48;43.88;100511.81;4897847;29;20188;-70
2021/06/17 12:46:17;;;;;;;7.05;2.30;;;;;;;29.80;43.01;100512.53;4896692;29;20056;-70
2021/06/17 12:54:24;;;;;;;5.22;2.38;;;;;;;29.84;43.32;100492.56;4897271;29;20053;-69
2021/06/17 12:56:59;;;;;;;6.50;2.30;;;;;;;30.01;43.84;100496.91;4897351;29;20068;-67
2021/06/17 12:59:37;;;;;;;6.93;2.33;;;;;;;30.17;42.62;100493.19;4881850;29;20060;-67
2021/06/17 13:02:09;;;;;;;8.15;2.50;;;;;;;30.05;43.26;100503.31;4881858;28;20064;-71
2021/06/17 13:04:38;;;;;;;10.40;2.42;;;;;;;30.28;42.93;100508.72;4896559;29;20516;-72